sensor_id;sensor_type;location;lat;lon;timestamp;temperature;humidity
20057;DHT22;10189;49.546;7.906;2023-01-19T00:00:17;-4.00;99.50
20057;DHT22;10189;49.546;7.906;2023-01-19T00:02:43;-4.00;99.80
20057;DHT22;10189;49.546;7.906;2023-01-19T00:05:12;-4.00;99.90
20057;DHT22;10189;49.546;7.906;2023-01-19T00:07:39;-4.00;99.90
20057;DHT22;10189;49.546;7.906;2023-01-19T00:10:05;-4.10;99.90
20057;DHT22;10189;49.546;7.906;2023-01-19T00:12:32;-4.00;99.90
20057;DHT22;10189;49.546;7.906;2023-01-19T00:14:58;-4.00;99.90
20057;DHT22;10189;49.546;7.906;2023-01-19T00:17:24;-3.90;99.90
20057;DHT22;10189;49.546;7.906;2023-01-19T00:19:50;-3.80;99.90
20057;DHT22;10189;49.546;7.906;2023-01-19T00:22:16;-3.80;99.90
20057;DHT22;10189;49.546;7.906;2023-01-19T00:24:41;-3.70;99.90
20057;DHT22;10189;49.546;7.906;2023-01-19T00:27:08;-3.70;99.90
20057;DHT22;10189;49.546;7.906;2023-01-19T00:29:34;-3.70;99.90
20057;DHT22;10189;49.546;7.906;2023-01-19T00:32:02;-3.60;99.60
20057;DHT22;10189;49.546;7.906;2023-01-19T00:34:29;-3.60;99.90
20057;DHT22;10189;49.546;7.906;2023-01-19T00:37:11;-3.60;99.90
20057;DHT22;10189;49.546;7.906;2023-01-19T00:39:36;-3.50;99.70
20057;DHT22;10189;49.546;7.906;2023-01-19T00:42:02;-3.50;99.30
20057;DHT22;10189;49.546;7.906;2023-01-19T00:44:47;-3.50;99.60
20057;DHT22;10189;49.546;7.906;2023-01-19T00:47:13;-3.50;99.50
20057;DHT22;10189;49.546;7.906;2023-01-19T00:49:39;-3.50;99.60
20057;DHT22;10189;49.546;7.906;2023-01-19T00:52:05;-3.50;99.90
20057;DHT22;10189;49.546;7.906;2023-01-19T00:54:31;-3.50;99.90
20057;DHT22;10189;49.546;7.906;2023-01-19T00:56:57;-3.40;99.90
20057;DHT22;10189;49.546;7.906;2023-01-19T00:59:23;-3.20;99.90
20057;DHT22;10189;49.546;7.906;2023-01-19T01:01:50;-3.10;99.90
20057;DHT22;10189;49.546;7.906;2023-01-19T01:04:16;-2.90;99.90
20057;DHT22;10189;49.546;7.906;2023-01-19T01:06:42;-2.70;99.10
20057;DHT22;10189;49.546;7.906;2023-01-19T01:09:07;-2.60;98.30
20057;DHT22;10189;49.546;7.906;2023-01-19T01:11:40;-2.60;98.00
20057;DHT22;10189;49.546;7.906;2023-01-19T01:14:08;-2.40;97.50
20057;DHT22;10189;49.546;7.906;2023-01-19T01:16:35;-2.40;96.90
20057;DHT22;10189;49.546;7.906;2023-01-19T01:19:01;-2.30;97.00
20057;DHT22;10189;49.546;7.906;2023-01-19T01:21:26;-2.30;96.60
20057;DHT22;10189;49.546;7.906;2023-01-19T01:23:52;-2.40;96.70
20057;DHT22;10189;49.546;7.906;2023-01-19T01:26:19;-2.40;96.70
20057;DHT22;10189;49.546;7.906;2023-01-19T01:28:45;-2.40;97.10
20057;DHT22;10189;49.546;7.906;2023-01-19T01:31:10;-2.40;96.70
20057;DHT22;10189;49.546;7.906;2023-01-19T01:33:36;-2.40;96.80
20057;DHT22;10189;49.546;7.906;2023-01-19T01:36:03;-2.40;97.00
20057;DHT22;10189;49.546;7.906;2023-01-19T01:38:29;-2.30;96.40
20057;DHT22;10189;49.546;7.906;2023-01-19T01:40:55;-2.30;96.40
20057;DHT22;10189;49.546;7.906;2023-01-19T01:43:20;-2.30;96.70
20057;DHT22;10189;49.546;7.906;2023-01-19T01:45:46;-2.30;96.40
20057;DHT22;10189;49.546;7.906;2023-01-19T01:50:48;-2.30;96.60
20057;DHT22;10189;49.546;7.906;2023-01-19T01:53:36;-2.30;96.90
20057;DHT22;10189;49.546;7.906;2023-01-19T01:56:08;-2.30;97.20
20057;DHT22;10189;49.546;7.906;2023-01-19T01:58:37;-2.20;97.20
20057;DHT22;10189;49.546;7.906;2023-01-19T02:01:05;-2.20;97.30
20057;DHT22;10189;49.546;7.906;2023-01-19T02:03:51;-2.10;97.30
20057;DHT22;10189;49.546;7.906;2023-01-19T02:06:18;-2.00;96.90
20057;DHT22;10189;49.546;7.906;2023-01-19T02:08:51;-2.00;96.80
20057;DHT22;10189;49.546;7.906;2023-01-19T02:11:40;-2.00;96.90
20057;DHT22;10189;49.546;7.906;2023-01-19T02:14:24;-2.00;97.10
20057;DHT22;10189;49.546;7.906;2023-01-19T02:16:50;-1.90;96.90
20057;DHT22;10189;49.546;7.906;2023-01-19T02:19:23;-1.90;96.80
20057;DHT22;10189;49.546;7.906;2023-01-19T02:22:03;-1.80;97.00
20057;DHT22;10189;49.546;7.906;2023-01-19T02:24:37;-1.80;96.60
20057;DHT22;10189;49.546;7.906;2023-01-19T02:27:04;-1.80;96.70
20057;DHT22;10189;49.546;7.906;2023-01-19T02:29:32;-1.80;97.10
20057;DHT22;10189;49.546;7.906;2023-01-19T02:32:00;-1.80;97.00
20057;DHT22;10189;49.546;7.906;2023-01-19T02:34:28;-1.80;96.70
20057;DHT22;10189;49.546;7.906;2023-01-19T02:36:58;-1.80;97.00
20057;DHT22;10189;49.546;7.906;2023-01-19T02:42:38;-1.70;96.20
20057;DHT22;10189;49.546;7.906;2023-01-19T02:45:10;-1.70;96.50
20057;DHT22;10189;49.546;7.906;2023-01-19T02:47:42;-1.80;96.30
20057;DHT22;10189;49.546;7.906;2023-01-19T02:55:55;-1.70;96.30
20057;DHT22;10189;49.546;7.906;2023-01-19T02:59:06;-1.80;96.60
20057;DHT22;10189;49.546;7.906;2023-01-19T03:08:52;-1.80;97.20
20057;DHT22;10189;49.546;7.906;2023-01-19T03:11:10;-1.80;97.30
20057;DHT22;10189;49.546;7.906;2023-01-19T03:16:37;-1.70;97.60
20057;DHT22;10189;49.546;7.906;2023-01-19T03:19:13;-1.70;97.80
20057;DHT22;10189;49.546;7.906;2023-01-19T03:21:43;-1.70;97.70
20057;DHT22;10189;49.546;7.906;2023-01-19T03:24:14;-1.70;97.30
20057;DHT22;10189;49.546;7.906;2023-01-19T03:26:44;-1.60;96.90
20057;DHT22;10189;49.546;7.906;2023-01-19T03:29:14;-1.60;96.90
20057;DHT22;10189;49.546;7.906;2023-01-19T03:31:45;-1.60;96.40
20057;DHT22;10189;49.546;7.906;2023-01-19T03:34:15;-1.60;96.70
20057;DHT22;10189;49.546;7.906;2023-01-19T03:36:46;-1.60;96.80
20057;DHT22;10189;49.546;7.906;2023-01-19T03:39:20;-1.60;96.50
20057;DHT22;10189;49.546;7.906;2023-01-19T03:41:50;-1.60;96.10
20057;DHT22;10189;49.546;7.906;2023-01-19T03:44:19;-1.60;95.90
20057;DHT22;10189;49.546;7.906;2023-01-19T03:46:46;-1.60;96.10
20057;DHT22;10189;49.546;7.906;2023-01-19T03:49:14;-1.60;95.90
20057;DHT22;10189;49.546;7.906;2023-01-19T03:51:41;-1.60;96.00
20057;DHT22;10189;49.546;7.906;2023-01-19T03:54:09;-1.60;95.60
20057;DHT22;10189;49.546;7.906;2023-01-19T03:56:35;-1.60;95.90
20057;DHT22;10189;49.546;7.906;2023-01-19T03:59:01;-1.60;95.70
20057;DHT22;10189;49.546;7.906;2023-01-19T04:01:29;-1.60;96.00
20057;DHT22;10189;49.546;7.906;2023-01-19T04:03:56;-1.50;95.20
20057;DHT22;10189;49.546;7.906;2023-01-19T04:06:22;-1.50;95.10
20057;DHT22;10189;49.546;7.906;2023-01-19T04:08:49;-1.60;95.00
20057;DHT22;10189;49.546;7.906;2023-01-19T04:11:16;-1.50;95.10
20057;DHT22;10189;49.546;7.906;2023-01-19T04:13:41;-1.50;94.50
20057;DHT22;10189;49.546;7.906;2023-01-19T04:16:09;-1.40;94.30
20057;DHT22;10189;49.546;7.906;2023-01-19T04:18:36;-1.50;94.60
20057;DHT22;10189;49.546;7.906;2023-01-19T04:21:04;-1.50;95.00
20057;DHT22;10189;49.546;7.906;2023-01-19T04:23:31;-1.50;94.90
20057;DHT22;10189;49.546;7.906;2023-01-19T04:25:59;-1.50;95.20
20057;DHT22;10189;49.546;7.906;2023-01-19T04:28:29;-1.50;95.60
20057;DHT22;10189;49.546;7.906;2023-01-19T04:30:56;-1.60;95.10
20057;DHT22;10189;49.546;7.906;2023-01-19T04:33:22;-1.70;95.30
20057;DHT22;10189;49.546;7.906;2023-01-19T04:35:49;-1.80;95.80
20057;DHT22;10189;49.546;7.906;2023-01-19T04:38:17;-1.90;96.20
20057;DHT22;10189;49.546;7.906;2023-01-19T04:40:44;-2.00;96.50
20057;DHT22;10189;49.546;7.906;2023-01-19T04:43:10;-2.10;96.90
20057;DHT22;10189;49.546;7.906;2023-01-19T04:45:37;-2.10;97.00
20057;DHT22;10189;49.546;7.906;2023-01-19T04:48:03;-2.20;97.00
20057;DHT22;10189;49.546;7.906;2023-01-19T04:50:30;-2.30;97.30
20057;DHT22;10189;49.546;7.906;2023-01-19T04:52:57;-2.30;97.20
20057;DHT22;10189;49.546;7.906;2023-01-19T04:55:23;-2.30;97.60
20057;DHT22;10189;49.546;7.906;2023-01-19T04:57:49;-2.40;97.80
20057;DHT22;10189;49.546;7.906;2023-01-19T05:00:15;-2.40;97.70
20057;DHT22;10189;49.546;7.906;2023-01-19T05:02:42;-2.40;98.30
20057;DHT22;10189;49.546;7.906;2023-01-19T05:05:09;-2.30;98.60
20057;DHT22;10189;49.546;7.906;2023-01-19T05:07:36;-2.20;98.30
20057;DHT22;10189;49.546;7.906;2023-01-19T05:10:03;-2.10;98.30
20057;DHT22;10189;49.546;7.906;2023-01-19T05:12:31;-2.10;97.90
20057;DHT22;10189;49.546;7.906;2023-01-19T05:14:57;-2.00;97.70
20057;DHT22;10189;49.546;7.906;2023-01-19T05:17:23;-1.90;97.00
20057;DHT22;10189;49.546;7.906;2023-01-19T05:19:49;-1.80;96.70
20057;DHT22;10189;49.546;7.906;2023-01-19T05:22:16;-1.70;95.80
20057;DHT22;10189;49.546;7.906;2023-01-19T05:24:42;-1.70;95.60
20057;DHT22;10189;49.546;7.906;2023-01-19T05:27:07;-1.70;95.60
20057;DHT22;10189;49.546;7.906;2023-01-19T05:29:33;-1.70;95.40
20057;DHT22;10189;49.546;7.906;2023-01-19T05:31:59;-1.70;95.80
20057;DHT22;10189;49.546;7.906;2023-01-19T05:34:26;-1.70;96.10
20057;DHT22;10189;49.546;7.906;2023-01-19T05:36:52;-1.70;96.10
20057;DHT22;10189;49.546;7.906;2023-01-19T05:39:18;-1.70;96.00
20057;DHT22;10189;49.546;7.906;2023-01-19T05:41:44;-1.60;96.40
20057;DHT22;10189;49.546;7.906;2023-01-19T05:44:11;-1.60;96.00
20057;DHT22;10189;49.546;7.906;2023-01-19T05:46:38;-1.60;95.80
20057;DHT22;10189;49.546;7.906;2023-01-19T05:49:05;-1.60;96.00
20057;DHT22;10189;49.546;7.906;2023-01-19T05:51:33;-1.60;96.00
20057;DHT22;10189;49.546;7.906;2023-01-19T05:54:06;-1.50;96.30
20057;DHT22;10189;49.546;7.906;2023-01-19T05:56:33;-1.50;96.00
20057;DHT22;10189;49.546;7.906;2023-01-19T05:59:00;-1.60;96.50
20057;DHT22;10189;49.546;7.906;2023-01-19T06:01:26;-1.50;96.70
20057;DHT22;10189;49.546;7.906;2023-01-19T06:03:52;-1.50;96.70
20057;DHT22;10189;49.546;7.906;2023-01-19T06:06:18;-1.50;96.90
20057;DHT22;10189;49.546;7.906;2023-01-19T06:08:44;-1.50;96.70
20057;DHT22;10189;49.546;7.906;2023-01-19T06:11:11;-1.40;96.70
20057;DHT22;10189;49.546;7.906;2023-01-19T06:13:37;-1.40;97.00
20057;DHT22;10189;49.546;7.906;2023-01-19T06:16:05;-1.40;97.00
20057;DHT22;10189;49.546;7.906;2023-01-19T06:18:32;-1.40;97.10
20057;DHT22;10189;49.546;7.906;2023-01-19T06:21:01;-1.40;97.30
20057;DHT22;10189;49.546;7.906;2023-01-19T06:23:32;-1.40;97.20
20057;DHT22;10189;49.546;7.906;2023-01-19T06:25:59;-1.30;97.20
20057;DHT22;10189;49.546;7.906;2023-01-19T06:28:25;-1.30;97.10
20057;DHT22;10189;49.546;7.906;2023-01-19T06:30:53;-1.30;97.30
20057;DHT22;10189;49.546;7.906;2023-01-19T06:33:20;-1.30;96.90
20057;DHT22;10189;49.546;7.906;2023-01-19T06:35:48;-1.30;96.80
20057;DHT22;10189;49.546;7.906;2023-01-19T06:38:15;-1.30;96.80
20057;DHT22;10189;49.546;7.906;2023-01-19T06:40:46;-1.30;96.90
20057;DHT22;10189;49.546;7.906;2023-01-19T06:43:18;-1.30;96.90
20057;DHT22;10189;49.546;7.906;2023-01-19T06:45:45;-1.20;96.70
20057;DHT22;10189;49.546;7.906;2023-01-19T06:48:11;-1.20;96.50
20057;DHT22;10189;49.546;7.906;2023-01-19T06:50:37;-1.20;96.50
20057;DHT22;10189;49.546;7.906;2023-01-19T06:53:03;-1.20;96.40
20057;DHT22;10189;49.546;7.906;2023-01-19T06:55:29;-1.20;96.70
20057;DHT22;10189;49.546;7.906;2023-01-19T06:57:58;-1.20;96.40
20057;DHT22;10189;49.546;7.906;2023-01-19T07:00:25;-1.20;96.40
20057;DHT22;10189;49.546;7.906;2023-01-19T07:02:51;-1.20;95.70
20057;DHT22;10189;49.546;7.906;2023-01-19T07:05:17;-1.20;95.90
20057;DHT22;10189;49.546;7.906;2023-01-19T07:07:43;-1.20;96.10
20057;DHT22;10189;49.546;7.906;2023-01-19T07:10:11;-1.30;95.70
20057;DHT22;10189;49.546;7.906;2023-01-19T07:12:38;-1.30;95.60
20057;DHT22;10189;49.546;7.906;2023-01-19T07:15:05;-1.30;95.70
20057;DHT22;10189;49.546;7.906;2023-01-19T07:17:31;-1.20;95.30
20057;DHT22;10189;49.546;7.906;2023-01-19T07:19:58;-1.30;95.30
20057;DHT22;10189;49.546;7.906;2023-01-19T07:22:23;-1.30;95.10
20057;DHT22;10189;49.546;7.906;2023-01-19T07:24:49;-1.30;95.10
20057;DHT22;10189;49.546;7.906;2023-01-19T07:27:15;-1.30;95.00
20057;DHT22;10189;49.546;7.906;2023-01-19T07:29:41;-1.20;95.00
20057;DHT22;10189;49.546;7.906;2023-01-19T07:32:07;-1.30;94.60
20057;DHT22;10189;49.546;7.906;2023-01-19T07:34:33;-1.20;94.70
20057;DHT22;10189;49.546;7.906;2023-01-19T07:37:00;-1.20;94.70
20057;DHT22;10189;49.546;7.906;2023-01-19T07:39:26;-1.30;94.60
20057;DHT22;10189;49.546;7.906;2023-01-19T07:41:52;-1.20;94.90
20057;DHT22;10189;49.546;7.906;2023-01-19T07:44:21;-1.20;94.30
20057;DHT22;10189;49.546;7.906;2023-01-19T07:46:48;-1.20;94.30
20057;DHT22;10189;49.546;7.906;2023-01-19T07:49:15;-1.30;94.60
20057;DHT22;10189;49.546;7.906;2023-01-19T07:51:41;-1.30;94.30
20057;DHT22;10189;49.546;7.906;2023-01-19T07:54:08;-1.30;94.50
20057;DHT22;10189;49.546;7.906;2023-01-19T07:56:35;-1.30;94.70
20057;DHT22;10189;49.546;7.906;2023-01-19T07:59:01;-1.20;94.90
20057;DHT22;10189;49.546;7.906;2023-01-19T08:01:26;-1.20;94.80
20057;DHT22;10189;49.546;7.906;2023-01-19T08:03:52;-1.20;94.80
20057;DHT22;10189;49.546;7.906;2023-01-19T08:06:21;-1.20;95.10
20057;DHT22;10189;49.546;7.906;2023-01-19T08:08:48;-1.20;95.10
20057;DHT22;10189;49.546;7.906;2023-01-19T08:11:14;-1.20;95.40
20057;DHT22;10189;49.546;7.906;2023-01-19T08:13:40;-1.10;95.10
20057;DHT22;10189;49.546;7.906;2023-01-19T08:16:07;-1.10;95.20
20057;DHT22;10189;49.546;7.906;2023-01-19T08:18:33;-1.20;95.30
20057;DHT22;10189;49.546;7.906;2023-01-19T08:21:00;-1.10;95.40
20057;DHT22;10189;49.546;7.906;2023-01-19T08:23:26;-1.10;95.60
20057;DHT22;10189;49.546;7.906;2023-01-19T08:25:55;-1.10;95.80
20057;DHT22;10189;49.546;7.906;2023-01-19T08:28:21;-1.10;95.70
20057;DHT22;10189;49.546;7.906;2023-01-19T08:30:48;-1.00;95.70
20057;DHT22;10189;49.546;7.906;2023-01-19T08:33:23;-1.10;96.20
20057;DHT22;10189;49.546;7.906;2023-01-19T08:35:51;-1.00;96.10
20057;DHT22;10189;49.546;7.906;2023-01-19T08:38:18;-1.00;96.00
20057;DHT22;10189;49.546;7.906;2023-01-19T08:40:45;-1.00;96.00
20057;DHT22;10189;49.546;7.906;2023-01-19T08:43:15;-0.90;95.40
20057;DHT22;10189;49.546;7.906;2023-01-19T08:45:44;-1.00;95.30
20057;DHT22;10189;49.546;7.906;2023-01-19T08:48:16;-1.00;95.30
20057;DHT22;10189;49.546;7.906;2023-01-19T08:50:48;-1.10;95.30
20057;DHT22;10189;49.546;7.906;2023-01-19T08:53:15;-1.30;96.10
20057;DHT22;10189;49.546;7.906;2023-01-19T08:55:42;-1.20;96.40
20057;DHT22;10189;49.546;7.906;2023-01-19T08:58:08;-1.20;96.50
20057;DHT22;10189;49.546;7.906;2023-01-19T09:00:35;-1.10;96.70
20057;DHT22;10189;49.546;7.906;2023-01-19T09:03:03;-1.00;96.50
20057;DHT22;10189;49.546;7.906;2023-01-19T09:05:32;-1.00;95.60
20057;DHT22;10189;49.546;7.906;2023-01-19T09:08:02;-1.00;95.10
20057;DHT22;10189;49.546;7.906;2023-01-19T09:10:30;-1.10;95.50
20057;DHT22;10189;49.546;7.906;2023-01-19T09:13:03;-1.00;95.80
20057;DHT22;10189;49.546;7.906;2023-01-19T09:15:31;-0.90;95.30
20057;DHT22;10189;49.546;7.906;2023-01-19T09:18:01;-0.90;95.40
20057;DHT22;10189;49.546;7.906;2023-01-19T09:20:29;-0.80;95.50
20057;DHT22;10189;49.546;7.906;2023-01-19T09:22:56;-0.70;94.60
20057;DHT22;10189;49.546;7.906;2023-01-19T09:25:23;-0.60;93.80
20057;DHT22;10189;49.546;7.906;2023-01-19T09:27:50;-0.50;93.20
20057;DHT22;10189;49.546;7.906;2023-01-19T09:30:16;-0.40;92.00
20057;DHT22;10189;49.546;7.906;2023-01-19T09:32:44;-0.40;91.90
20057;DHT22;10189;49.546;7.906;2023-01-19T09:35:10;-0.40;91.60
20057;DHT22;10189;49.546;7.906;2023-01-19T09:37:36;-0.30;91.30
20057;DHT22;10189;49.546;7.906;2023-01-19T09:40:04;-0.30;90.80
20057;DHT22;10189;49.546;7.906;2023-01-19T09:42:46;-0.30;90.90
20057;DHT22;10189;49.546;7.906;2023-01-19T09:45:26;-0.20;90.60
20057;DHT22;10189;49.546;7.906;2023-01-19T09:47:59;-0.20;90.60
20057;DHT22;10189;49.546;7.906;2023-01-19T09:50:32;0.00;90.20
20057;DHT22;10189;49.546;7.906;2023-01-19T09:53:12;0.20;88.50
20057;DHT22;10189;49.546;7.906;2023-01-19T09:55:49;0.10;88.20
20057;DHT22;10189;49.546;7.906;2023-01-19T09:58:16;0.10;88.50
20057;DHT22;10189;49.546;7.906;2023-01-19T10:00:56;-0.10;88.50
20057;DHT22;10189;49.546;7.906;2023-01-19T10:03:35;-0.10;89.30
20057;DHT22;10189;49.546;7.906;2023-01-19T10:06:08;-0.10;89.10
20057;DHT22;10189;49.546;7.906;2023-01-19T10:11:53;0.10;89.60
20057;DHT22;10189;49.546;7.906;2023-01-19T10:14:35;0.20;88.50
20057;DHT22;10189;49.546;7.906;2023-01-19T10:17:19;0.30;88.50
20057;DHT22;10189;49.546;7.906;2023-01-19T10:20:00;0.40;87.30
20057;DHT22;10189;49.546;7.906;2023-01-19T10:22:27;0.40;87.30
20057;DHT22;10189;49.546;7.906;2023-01-19T10:25:00;0.40;86.50
20057;DHT22;10189;49.546;7.906;2023-01-19T10:27:31;0.40;86.40
20057;DHT22;10189;49.546;7.906;2023-01-19T10:30:00;0.50;86.70
20057;DHT22;10189;49.546;7.906;2023-01-19T10:32:33;0.60;85.80
20057;DHT22;10189;49.546;7.906;2023-01-19T10:35:05;1.00;87.00
20057;DHT22;10189;49.546;7.906;2023-01-19T10:37:46;1.40;85.40
20057;DHT22;10189;49.546;7.906;2023-01-19T10:40:44;1.40;82.20
20057;DHT22;10189;49.546;7.906;2023-01-19T10:43:47;1.00;82.60
20057;DHT22;10189;49.546;7.906;2023-01-19T10:46:24;0.90;84.20
20057;DHT22;10189;49.546;7.906;2023-01-19T10:48:54;1.10;84.20
20057;DHT22;10189;49.546;7.906;2023-01-19T10:51:20;1.30;82.80
20057;DHT22;10189;49.546;7.906;2023-01-19T10:54:03;1.20;82.80
20057;DHT22;10189;49.546;7.906;2023-01-19T10:56:34;1.20;83.90
20057;DHT22;10189;49.546;7.906;2023-01-19T10:59:05;1.10;82.90
20057;DHT22;10189;49.546;7.906;2023-01-19T11:01:32;1.00;82.90
20057;DHT22;10189;49.546;7.906;2023-01-19T11:04:24;0.80;82.80
20057;DHT22;10189;49.546;7.906;2023-01-19T11:07:13;0.70;83.20
20057;DHT22;10189;49.546;7.906;2023-01-19T11:18:01;0.50;84.30
20057;DHT22;10189;49.546;7.906;2023-01-19T11:20:49;0.60;84.20
20057;DHT22;10189;49.546;7.906;2023-01-19T11:25:57;0.70;84.40
20057;DHT22;10189;49.546;7.906;2023-01-19T11:33:50;1.20;81.60
20057;DHT22;10189;49.546;7.906;2023-01-19T11:36:18;1.30;80.00
20057;DHT22;10189;49.546;7.906;2023-01-19T11:38:48;1.40;78.30
20057;DHT22;10189;49.546;7.906;2023-01-19T11:41:18;1.50;78.90
20057;DHT22;10189;49.546;7.906;2023-01-19T11:43:50;1.40;78.20
20057;DHT22;10189;49.546;7.906;2023-01-19T11:46:20;1.40;78.00
20057;DHT22;10189;49.546;7.906;2023-01-19T11:48:54;1.40;79.40
20057;DHT22;10189;49.546;7.906;2023-01-19T11:51:34;1.60;78.00
20057;DHT22;10189;49.546;7.906;2023-01-19T11:54:21;1.70;78.40
20057;DHT22;10189;49.546;7.906;2023-01-19T11:56:51;1.70;77.50
20057;DHT22;10189;49.546;7.906;2023-01-19T11:59:20;1.50;76.00
20057;DHT22;10189;49.546;7.906;2023-01-19T12:01:52;1.40;77.30
20057;DHT22;10189;49.546;7.906;2023-01-19T12:07:03;1.30;77.30
20057;DHT22;10189;49.546;7.906;2023-01-19T12:09:50;1.40;76.80
20057;DHT22;10189;49.546;7.906;2023-01-19T12:12:27;1.50;76.90
20057;DHT22;10189;49.546;7.906;2023-01-19T12:15:05;1.40;76.20
20057;DHT22;10189;49.546;7.906;2023-01-19T12:17:51;1.50;77.20
20057;DHT22;10189;49.546;7.906;2023-01-19T12:20:36;1.60;77.00
20057;DHT22;10189;49.546;7.906;2023-01-19T12:28:45;1.80;76.50
20057;DHT22;10189;49.546;7.906;2023-01-19T12:31:15;1.90;75.90
20057;DHT22;10189;49.546;7.906;2023-01-19T12:33:42;1.90;75.70
20057;DHT22;10189;49.546;7.906;2023-01-19T12:41:44;1.80;74.00
20057;DHT22;10189;49.546;7.906;2023-01-19T12:46:59;1.70;73.70
20057;DHT22;10189;49.546;7.906;2023-01-19T12:49:47;1.60;73.80
20057;DHT22;10189;49.546;7.906;2023-01-19T12:55:25;1.40;74.50
20057;DHT22;10189;49.546;7.906;2023-01-19T13:00:44;1.20;74.80
20057;DHT22;10189;49.546;7.906;2023-01-19T13:10:54;1.30;75.50
20057;DHT22;10189;49.546;7.906;2023-01-19T13:21:39;1.10;76.00
20057;DHT22;10189;49.546;7.906;2023-01-19T13:24:17;1.10;76.60
20057;DHT22;10189;49.546;7.906;2023-01-19T13:31:58;1.10;76.30
20057;DHT22;10189;49.546;7.906;2023-01-19T13:34:53;1.30;76.50
20057;DHT22;10189;49.546;7.906;2023-01-19T13:37:29;1.30;76.50
20057;DHT22;10189;49.546;7.906;2023-01-19T13:40:03;1.20;75.50
20057;DHT22;10189;49.546;7.906;2023-01-19T13:42:39;1.20;76.50
20057;DHT22;10189;49.546;7.906;2023-01-19T13:45:26;1.30;76.30
20057;DHT22;10189;49.546;7.906;2023-01-19T13:47:59;1.20;76.90
20057;DHT22;10189;49.546;7.906;2023-01-19T13:50:33;1.30;76.40
20057;DHT22;10189;49.546;7.906;2023-01-19T13:53:00;1.20;76.30
20057;DHT22;10189;49.546;7.906;2023-01-19T13:55:30;1.10;77.20
20057;DHT22;10189;49.546;7.906;2023-01-19T13:57:56;1.10;77.50
20057;DHT22;10189;49.546;7.906;2023-01-19T14:00:27;1.10;77.20
20057;DHT22;10189;49.546;7.906;2023-01-19T14:05:43;1.20;77.60
20057;DHT22;10189;49.546;7.906;2023-01-19T14:13:20;1.10;77.90
20057;DHT22;10189;49.546;7.906;2023-01-19T14:16:05;1.00;77.30
20057;DHT22;10189;49.546;7.906;2023-01-19T14:18:39;1.00;78.10
20057;DHT22;10189;49.546;7.906;2023-01-19T14:21:07;1.10;78.40
20057;DHT22;10189;49.546;7.906;2023-01-19T14:23:39;1.10;78.40
20057;DHT22;10189;49.546;7.906;2023-01-19T14:26:38;1.10;78.60
20057;DHT22;10189;49.546;7.906;2023-01-19T14:32:11;1.00;79.00
20057;DHT22;10189;49.546;7.906;2023-01-19T14:37:21;1.00;79.80
20057;DHT22;10189;49.546;7.906;2023-01-19T14:39:50;1.00;80.20
20057;DHT22;10189;49.546;7.906;2023-01-19T14:42:24;1.00;79.50
20057;DHT22;10189;49.546;7.906;2023-01-19T14:44:54;1.00;80.40
20057;DHT22;10189;49.546;7.906;2023-01-19T14:47:35;1.10;79.90
20057;DHT22;10189;49.546;7.906;2023-01-19T14:50:20;1.00;79.00
20057;DHT22;10189;49.546;7.906;2023-01-19T14:53:00;1.00;80.00
20057;DHT22;10189;49.546;7.906;2023-01-19T14:55:38;1.10;79.20
20057;DHT22;10189;49.546;7.906;2023-01-19T14:58:11;1.10;80.30
20057;DHT22;10189;49.546;7.906;2023-01-19T15:00:40;1.00;79.70
20057;DHT22;10189;49.546;7.906;2023-01-19T15:03:07;1.00;79.50
20057;DHT22;10189;49.546;7.906;2023-01-19T15:05:39;0.90;79.60
20057;DHT22;10189;49.546;7.906;2023-01-19T15:08:32;0.90;80.00
20057;DHT22;10189;49.546;7.906;2023-01-19T15:11:09;0.90;81.00
20057;DHT22;10189;49.546;7.906;2023-01-19T15:13:37;0.90;80.60
20057;DHT22;10189;49.546;7.906;2023-01-19T15:16:05;1.00;80.40
20057;DHT22;10189;49.546;7.906;2023-01-19T15:18:34;1.00;80.80
20057;DHT22;10189;49.546;7.906;2023-01-19T15:21:01;1.00;81.10
20057;DHT22;10189;49.546;7.906;2023-01-19T15:23:29;1.00;80.20
20057;DHT22;10189;49.546;7.906;2023-01-19T15:26:02;1.00;79.90
20057;DHT22;10189;49.546;7.906;2023-01-19T15:28:30;1.00;80.80
20057;DHT22;10189;49.546;7.906;2023-01-19T15:30:57;1.00;80.90
20057;DHT22;10189;49.546;7.906;2023-01-19T15:33:27;1.00;81.10
20057;DHT22;10189;49.546;7.906;2023-01-19T15:35:57;1.00;81.50
20057;DHT22;10189;49.546;7.906;2023-01-19T15:38:23;0.90;81.50
20057;DHT22;10189;49.546;7.906;2023-01-19T15:40:51;1.00;80.90
20057;DHT22;10189;49.546;7.906;2023-01-19T15:43:17;1.00;80.60
20057;DHT22;10189;49.546;7.906;2023-01-19T15:45:48;0.90;80.40
20057;DHT22;10189;49.546;7.906;2023-01-19T15:48:18;0.90;80.50
20057;DHT22;10189;49.546;7.906;2023-01-19T15:50:44;0.80;80.40
20057;DHT22;10189;49.546;7.906;2023-01-19T15:53:13;0.70;80.60
20057;DHT22;10189;49.546;7.906;2023-01-19T15:55:41;0.70;80.40
20057;DHT22;10189;49.546;7.906;2023-01-19T15:58:09;0.60;80.40
20057;DHT22;10189;49.546;7.906;2023-01-19T16:00:38;0.50;81.60
20057;DHT22;10189;49.546;7.906;2023-01-19T16:03:04;0.40;81.80
20057;DHT22;10189;49.546;7.906;2023-01-19T16:05:30;0.30;82.10
20057;DHT22;10189;49.546;7.906;2023-01-19T16:07:56;0.20;82.80
20057;DHT22;10189;49.546;7.906;2023-01-19T16:10:22;0.10;83.30
20057;DHT22;10189;49.546;7.906;2023-01-19T16:12:49;0.10;83.50
20057;DHT22;10189;49.546;7.906;2023-01-19T16:15:16;0.10;84.00
20057;DHT22;10189;49.546;7.906;2023-01-19T16:17:43;0.00;84.20
20057;DHT22;10189;49.546;7.906;2023-01-19T16:20:10;0.00;84.20
20057;DHT22;10189;49.546;7.906;2023-01-19T16:22:37;-0.10;84.60
20057;DHT22;10189;49.546;7.906;2023-01-19T16:25:04;-0.10;84.70
20057;DHT22;10189;49.546;7.906;2023-01-19T16:27:30;-0.20;85.00
20057;DHT22;10189;49.546;7.906;2023-01-19T16:29:56;-0.20;85.50
20057;DHT22;10189;49.546;7.906;2023-01-19T16:32:30;-0.20;85.60
20057;DHT22;10189;49.546;7.906;2023-01-19T16:34:57;-0.30;86.20
20057;DHT22;10189;49.546;7.906;2023-01-19T16:37:23;-0.30;86.30
20057;DHT22;10189;49.546;7.906;2023-01-19T16:39:50;-0.40;86.90
20057;DHT22;10189;49.546;7.906;2023-01-19T16:42:16;-0.40;86.90
20057;DHT22;10189;49.546;7.906;2023-01-19T16:44:42;-0.50;87.20
20057;DHT22;10189;49.546;7.906;2023-01-19T16:47:08;-0.50;87.70
20057;DHT22;10189;49.546;7.906;2023-01-19T16:49:34;-0.50;87.90
20057;DHT22;10189;49.546;7.906;2023-01-19T16:52:00;-0.60;88.20
20057;DHT22;10189;49.546;7.906;2023-01-19T16:54:26;-0.60;88.30
20057;DHT22;10189;49.546;7.906;2023-01-19T16:56:56;-0.60;88.50
20057;DHT22;10189;49.546;7.906;2023-01-19T16:59:23;-0.70;89.20
20057;DHT22;10189;49.546;7.906;2023-01-19T17:01:52;-0.80;89.30
20057;DHT22;10189;49.546;7.906;2023-01-19T17:04:19;-0.90;89.80
20057;DHT22;10189;49.546;7.906;2023-01-19T17:06:46;-1.00;90.60
20057;DHT22;10189;49.546;7.906;2023-01-19T17:09:12;-1.00;91.10
20057;DHT22;10189;49.546;7.906;2023-01-19T17:11:39;-1.10;91.50
20057;DHT22;10189;49.546;7.906;2023-01-19T17:14:07;-1.20;92.40
20057;DHT22;10189;49.546;7.906;2023-01-19T17:16:39;-1.20;92.90
20057;DHT22;10189;49.546;7.906;2023-01-19T17:19:07;-1.20;93.70
20057;DHT22;10189;49.546;7.906;2023-01-19T17:21:36;-1.20;93.80
20057;DHT22;10189;49.546;7.906;2023-01-19T17:24:03;-1.20;94.30
20057;DHT22;10189;49.546;7.906;2023-01-19T17:26:29;-1.20;94.50
20057;DHT22;10189;49.546;7.906;2023-01-19T17:29:04;-1.20;95.10